Time;durP1;ratioP1;P1;durP2;ratioP2;P2;SDS_P1;SDS_P2;PMS_P1;PMS_P2;Temp;Humidity;BMP_temperature;BMP_pressure;BME280_temperature;BME280_humidity;BME280_pressure;Samples;Min_cycle;Max_cycle;Signal;HPM_P1;HPM_P2
2023/02/28 00:01:14;;;;;;;4.68;2.80;;;;;;;;;;5130022;27;20374;-51
2023/02/28 00:03:40;;;;;;;3.47;2.55;;;;;;;;;;5128897;27;20019;-50
2023/02/28 00:06:07;;;;;;;3.55;2.75;;;;;;;;;;5129221;27;20019;-50
2023/02/28 00:08:33;;;;;;;6.03;3.38;;;;;;;;;;5129177;27;20054;-49
2023/02/28 00:11:07;;;;;;;3.75;2.60;;;;;;;;;;5129246;27;20163;-49
2023/02/28 00:13:34;;;;;;;3.85;3.10;;;;;;;;;;5128466;27;20425;-52
2023/02/28 00:16:02;;;;;;;5.40;3.20;;;;;;;;;;5129220;27;20065;-50
2023/02/28 00:18:28;;;;;;;4.93;2.90;;;;;;;;;;5128769;27;20073;-49
2023/02/28 00:20:54;;;;;;;4.82;3.05;;;;;;;;;;5129224;27;20385;-48
2023/02/28 00:23:20;;;;;;;4.75;2.97;;;;;;;;;;5128647;27;20019;-49
2023/02/28 00:25:46;;;;;;;4.55;2.90;;;;;;;;;;5129298;27;20098;-49
2023/02/28 00:28:12;;;;;;;4.13;2.92;;;;;;;;;;5128621;27;20038;-49
2023/02/28 00:30:38;;;;;;;5.72;3.38;;;;;;;;;;5128756;27;20394;-48
2023/02/28 00:33:04;;;;;;;4.25;2.90;;;;;;;;;;5128206;27;20730;-51
2023/02/28 00:35:30;;;;;;;3.85;2.83;;;;;;;;;;5128563;27;20537;-49
2023/02/28 00:37:56;;;;;;;5.15;3.50;;;;;;;;;;5128235;27;20521;-48
2023/02/28 00:40:22;;;;;;;5.28;2.78;;;;;;;;;;5128403;27;20034;-51
2023/02/28 00:42:48;;;;;;;4.55;2.80;;;;;;;;;;5126451;27;20527;-51
2023/02/28 00:45:14;;;;;;;4.88;2.65;;;;;;;;;;5128867;27;20066;-49
2023/02/28 00:47:40;;;;;;;3.50;2.55;;;;;;;;;;5128130;27;20019;-50
2023/02/28 00:50:07;;;;;;;3.72;2.47;;;;;;;;;;5127553;27;20034;-47
2023/02/28 00:52:34;;;;;;;4.18;2.40;;;;;;;;;;5127600;27;20027;-48
2023/02/28 00:55:00;;;;;;;5.20;2.90;;;;;;;;;;5127419;27;20441;-49
2023/02/28 00:57:26;;;;;;;4.65;3.08;;;;;;;;;;5127136;27;20509;-50
2023/02/28 00:59:54;;;;;;;4.90;2.92;;;;;;;;;;5127927;27;20033;-50
2023/02/28 01:02:20;;;;;;;3.65;3.28;;;;;;;;;;5126423;27;20015;-51
2023/02/28 01:04:47;;;;;;;4.18;3.15;;;;;;;;;;5128485;27;20023;-50
2023/02/28 06:11:19;;;;;;;4.25;2.75;;;;;;;;;;5122461;27;20061;-50
2023/02/28 06:13:45;;;;;;;4.28;2.75;;;;;;;;;;5128209;27;20064;-51
2023/02/28 06:16:12;;;;;;;5.20;2.72;;;;;;;;;;5128982;27;20031;-47
2023/02/28 06:18:39;;;;;;;3.72;2.10;;;;;;;;;;5129087;28;20086;-49
2023/02/28 06:21:05;;;;;;;4.75;2.67;;;;;;;;;;5128838;28;20051;-47
2023/02/28 06:23:31;;;;;;;3.95;2.30;;;;;;;;;;5129104;28;20030;-47
2023/02/28 06:25:58;;;;;;;3.42;2.42;;;;;;;;;;5128819;28;20043;-48
2023/02/28 06:28:25;;;;;;;3.55;2.30;;;;;;;;;;5129025;27;20031;-50
2023/02/28 06:30:51;;;;;;;3.05;2.03;;;;;;;;;;5127850;28;20227;-51
2023/02/28 06:33:17;;;;;;;2.78;1.70;;;;;;;;;;5128876;28;20058;-47
2023/02/28 06:35:52;;;;;;;2.63;1.75;;;;;;;;;;5128877;28;20486;-47
2023/02/28 06:38:19;;;;;;;3.05;1.80;;;;;;;;;;5128913;28;20031;-50
2023/02/28 06:40:45;;;;;;;4.63;2.00;;;;;;;;;;5128589;27;20034;-51
2023/02/28 06:43:14;;;;;;;7.00;3.10;;;;;;;;;;5128941;28;20030;-47
2023/02/28 06:45:43;;;;;;;4.65;3.13;;;;;;;;;;5128985;28;20019;-50
2023/02/28 06:48:10;;;;;;;6.05;3.78;;;;;;;;;;5128529;28;20610;-48
2023/02/28 06:50:37;;;;;;;4.60;3.58;;;;;;;;;;5128878;27;20035;-50
2023/02/28 06:53:03;;;;;;;5.68;3.72;;;;;;;;;;5128760;27;20027;-49
2023/02/28 06:55:29;;;;;;;4.57;2.80;;;;;;;;;;5131346;27;20521;-48
2023/02/28 06:57:55;;;;;;;5.10;3.10;;;;;;;;;;5131865;27;20034;-51
2023/02/28 07:00:21;;;;;;;6.13;3.75;;;;;;;;;;5130956;27;20026;-47
2023/02/28 07:02:47;;;;;;;11.15;5.95;;;;;;;;;;5131418;27;20076;-50
2023/02/28 07:05:13;;;;;;;11.48;5.85;;;;;;;;;;5131017;27;20083;-48
2023/02/28 07:07:43;;;;;;;11.07;6.53;;;;;;;;;;5132329;27;20608;-49
2023/02/28 07:10:11;;;;;;;9.15;5.30;;;;;;;;;;5130389;27;20011;-47
2023/02/28 07:12:37;;;;;;;7.60;4.85;;;;;;;;;;5130971;27;20113;-49
2023/02/28 07:15:03;;;;;;;7.80;4.80;;;;;;;;;;5131107;27;20051;-47
2023/02/28 07:17:29;;;;;;;6.32;3.90;;;;;;;;;;5134529;27;20026;-47
2023/02/28 07:19:55;;;;;;;7.35;4.32;;;;;;;;;;5141747;27;20027;-48
2023/02/28 07:22:22;;;;;;;6.35;3.85;;;;;;;;;;5131809;27;20023;-49
2023/02/28 07:24:48;;;;;;;8.10;4.05;;;;;;;;;;5131445;27;20019;-48
2023/02/28 07:27:23;;;;;;;8.15;4.38;;;;;;;;;;5131365;27;20023;-47
2023/02/28 07:29:49;;;;;;;8.57;3.97;;;;;;;;;;5130904;27;20076;-47
2023/02/28 07:32:16;;;;;;;6.13;3.63;;;;;;;;;;5131446;27;20118;-47
2023/02/28 07:34:42;;;;;;;7.55;4.57;;;;;;;;;;5131558;27;20030;-47
2023/02/28 07:37:08;;;;;;;7.22;3.97;;;;;;;;;;5131890;27;20055;-49
2023/02/28 07:39:34;;;;;;;5.25;3.60;;;;;;;;;;5131037;27;20045;-48
2023/02/28 07:42:03;;;;;;;7.43;4.03;;;;;;;;;;5131216;27;20502;-51
2023/02/28 07:44:29;;;;;;;6.55;3.25;;;;;;;;;;5131092;27;20016;-47
2023/02/28 07:46:55;;;;;;;6.57;3.92;;;;;;;;;;5131312;27;20027;-46
2023/02/28 07:49:22;;;;;;;7.68;3.80;;;;;;;;;;5131553;27;20030;-49
2023/02/28 07:51:48;;;;;;;6.18;3.50;;;;;;;;;;5131022;27;20055;-49
2023/02/28 07:54:14;;;;;;;5.40;3.28;;;;;;;;;;5130038;27;20061;-48
2023/02/28 07:56:40;;;;;;;5.88;3.15;;;;;;;;;;5131351;27;20137;-48
2023/02/28 07:59:06;;;;;;;6.38;3.42;;;;;;;;;;5131252;27;20031;-48
2023/02/28 08:01:32;;;;;;;6.18;3.47;;;;;;;;;;5130944;27;20047;-48
2023/02/28 08:03:58;;;;;;;5.13;3.10;;;;;;;;;;5131090;27;20023;-47
2023/02/28 08:06:26;;;;;;;4.05;2.75;;;;;;;;;;5130508;27;20030;-47
2023/02/28 08:08:53;;;;;;;7.43;3.72;;;;;;;;;;5129456;27;20027;-47
2023/02/28 08:11:19;;;;;;;4.63;2.55;;;;;;;;;;5130474;27;20031;-47
2023/02/28 08:13:46;;;;;;;4.68;2.70;;;;;;;;;;5110610;27;20038;-47
2023/02/28 08:16:17;;;;;;;5.43;2.67;;;;;;;;;;5108232;28;20509;-48
2023/02/28 08:18:43;;;;;;;4.95;2.65;;;;;;;;;;5090561;28;20081;-48
2023/02/28 08:21:10;;;;;;;3.75;2.55;;;;;;;;;;5118415;27;20026;-47
2023/02/28 08:23:36;;;;;;;5.35;3.10;;;;;;;;;;5109337;27;20020;-48
2023/02/28 08:26:03;;;;;;;3.80;2.50;;;;;;;;;;5108302;28;20036;-46
2023/02/28 08:28:29;;;;;;;3.72;2.28;;;;;;;;;;5108904;28;20019;-48
2023/02/28 08:30:55;;;;;;;3.80;2.65;;;;;;;;;;5108894;28;20024;-48
2023/02/28 08:33:22;;;;;;;5.32;2.40;;;;;;;;;;5109623;28;20024;-47
2023/02/28 08:35:48;;;;;;;4.53;2.45;;;;;;;;;;5108610;28;20020;-47
2023/02/28 08:38:14;;;;;;;4.60;2.35;;;;;;;;;;5108960;28;20170;-47
2023/02/28 08:40:40;;;;;;;3.72;2.20;;;;;;;;;;5108380;28;20028;-48
2023/02/28 08:43:06;;;;;;;3.65;1.80;;;;;;;;;;5108674;28;20036;-47
2023/02/28 08:45:32;;;;;;;4.28;2.03;;;;;;;;;;5108891;28;20034;-47
2023/02/28 08:47:58;;;;;;;3.33;2.00;;;;;;;;;;5108262;28;20634;-47
2023/02/28 08:50:24;;;;;;;2.67;1.80;;;;;;;;;;5108901;27;20525;-49
2023/02/28 08:52:50;;;;;;;2.50;1.85;;;;;;;;;;5108995;28;20031;-48
2023/02/28 08:55:17;;;;;;;1.92;1.65;;;;;;;;;;5096354;28;20545;-47
2023/02/28 08:57:43;;;;;;;2.80;1.83;;;;;;;;;;5108071;28;20028;-47
2023/02/28 09:00:10;;;;;;;2.65;1.90;;;;;;;;;;5107543;28;20046;-48
2023/02/28 09:02:36;;;;;;;7.45;4.20;;;;;;;;;;5108439;28;20031;-50
2023/02/28 09:05:03;;;;;;;14.32;6.80;;;;;;;;;;5107415;28;20027;-51
2023/02/28 09:07:30;;;;;;;12.10;6.20;;;;;;;;;;5108382;28;20020;-47
2023/02/28 09:09:57;;;;;;;9.63;5.43;;;;;;;;;;5108320;28;20031;-50
2023/02/28 09:12:24;;;;;;;6.80;4.15;;;;;;;;;;5108336;28;20114;-50
2023/02/28 09:14:50;;;;;;;6.32;4.18;;;;;;;;;;5107843;28;20024;-49
2023/02/28 09:17:16;;;;;;;7.97;3.97;;;;;;;;;;5106428;28;20027;-50
2023/02/28 09:19:42;;;;;;;6.80;3.63;;;;;;;;;;5107175;28;20098;-50
2023/02/28 09:22:09;;;;;;;5.28;3.13;;;;;;;;;;5106817;28;20023;-51
2023/02/28 09:24:36;;;;;;;4.78;3.40;;;;;;;;;;5099405;28;20057;-47
2023/02/28 09:27:02;;;;;;;5.95;3.30;;;;;;;;;;5103170;28;20028;-47
2023/02/28 09:29:28;;;;;;;5.03;3.40;;;;;;;;;;5104961;28;20027;-49
2023/02/28 09:31:54;;;;;;;5.50;2.83;;;;;;;;;;5106716;28;20031;-49
2023/02/28 09:34:20;;;;;;;4.93;3.28;;;;;;;;;;5108360;28;20028;-49
2023/02/28 09:36:46;;;;;;;4.85;2.88;;;;;;;;;;5107546;28;20730;-51
2023/02/28 09:39:15;;;;;;;4.35;2.20;;;;;;;;;;5107815;28;20106;-49
2023/02/28 09:41:50;;;;;;;4.82;2.17;;;;;;;;;;5107721;28;20034;-52
2023/02/28 09:44:23;;;;;;;5.53;2.78;;;;;;;;;;5105838;28;20031;-47
2023/02/28 09:46:52;;;;;;;3.70;2.13;;;;;;;;;;5102711;28;20016;-48
2023/02/28 09:49:21;;;;;;;4.07;2.33;;;;;;;;;;5107170;28;20748;-48
2023/02/28 09:51:48;;;;;;;5.68;3.47;;;;;;;;;;5107216;28;20023;-50
2023/02/28 09:54:18;;;;;;;6.40;3.50;;;;;;;;;;5106576;28;20103;-50
2023/02/28 09:56:45;;;;;;;7.07;3.72;;;;;;;;;;5106371;28;20036;-51
2023/02/28 09:59:17;;;;;;;6.38;3.78;;;;;;;;;;5108521;28;20028;-48
2023/02/28 10:02:02;;;;;;;6.45;3.85;;;;;;;;;;5126385;27;20023;-52
2023/02/28 10:04:37;;;;;;;5.18;3.10;;;;;;;;;;5126813;27;20026;-48
2023/02/28 10:07:06;;;;;;;5.40;2.80;;;;;;;;;;5117363;28;20027;-50
2023/02/28 10:09:34;;;;;;;4.07;2.70;;;;;;;;;;5105604;28;20495;-47
2023/02/28 10:12:02;;;;;;;5.50;2.97;;;;;;;;;;5106123;28;20031;-52
2023/02/28 10:14:30;;;;;;;5.65;3.13;;;;;;;;;;5102256;28;20028;-48
2023/02/28 10:16:59;;;;;;;4.30;2.38;;;;;;;;;;5085978;28;20134;-50
2023/02/28 10:19:44;;;;;;;3.65;2.30;;;;;;;;;;5090332;28;20039;-47
2023/02/28 10:22:18;;;;;;;5.15;2.13;;;;;;;;;;5107719;28;20072;-48
2023/02/28 10:24:44;;;;;;;2.65;1.95;;;;;;;;;;5100065;28;20841;-47
2023/02/28 10:27:15;;;;;;;3.33;2.22;;;;;;;;;;5098891;28;20151;-51
2023/02/28 10:29:46;;;;;;;3.65;2.40;;;;;;;;;;5108958;28;20036;-48
2023/02/28 10:32:14;;;;;;;4.70;2.40;;;;;;;;;;5110195;28;20061;-50
2023/02/28 10:34:40;;;;;;;3.15;2.00;;;;;;;;;;5110223;28;20020;-48
2023/02/28 10:37:07;;;;;;;3.85;2.40;;;;;;;;;;5110716;28;20438;-46
2023/02/28 10:39:43;;;;;;;2.33;1.70;;;;;;;;;;5110794;28;20027;-46
2023/02/28 10:42:28;;;;;;;2.63;1.92;;;;;;;;;;5109910;28;20396;-48
2023/02/28 10:45:13;;;;;;;3.20;2.10;;;;;;;;;;5108528;28;20049;-49
2023/02/28 10:47:49;;;;;;;3.70;2.20;;;;;;;;;;5108434;27;20031;-48
2023/02/28 10:50:33;;;;;;;4.18;2.88;;;;;;;;;;5109858;28;20038;-47
2023/02/28 10:52:59;;;;;;;;;;;;;;;;;;5109723;28;20301;-47
2023/02/28 10:55:26;;;;;;;4.97;2.92;;;;;;;;;;5110166;28;20374;-47
2023/02/28 10:57:53;;;;;;;3.65;2.45;;;;;;;;;;5109120;28;20134;-48
2023/02/28 11:00:19;;;;;;;4.55;3.05;;;;;;;;;;5108168;27;20054;-50
2023/02/28 11:02:46;;;;;;;3.42;2.60;;;;;;;;;;5109422;28;20023;-50
2023/02/28 11:05:31;;;;;;;4.15;2.67;;;;;;;;;;5109413;28;20031;-50
2023/02/28 11:08:18;;;;;;;2.75;2.10;;;;;;;;;;5109757;28;20390;-51
2023/02/28 11:10:48;;;;;;;3.35;2.33;;;;;;;;;;5109466;28;20032;-49
2023/02/28 11:13:18;;;;;;;2.10;1.90;;;;;;;;;;5101264;28;20060;-50
2023/02/28 11:15:56;;;;;;;2.40;1.95;;;;;;;;;;5088901;28;20421;-47
2023/02/28 11:18:25;;;;;;;3.03;2.13;;;;;;;;;;5088868;28;20024;-48
2023/02/28 11:20:53;;;;;;;2.42;1.90;;;;;;;;;;5088745;28;20020;-48
2023/02/28 11:23:20;;;;;;;2.95;2.40;;;;;;;;;;5097476;27;20065;-50
2023/02/28 11:25:53;;;;;;;2.85;2.00;;;;;;;;;;5107321;28;20035;-49
2023/02/28 11:28:32;;;;;;;3.00;2.10;;;;;;;;;;5115832;27;20019;-51
2023/02/28 11:31:13;;;;;;;1.88;1.60;;;;;;;;;;5112147;27;20650;-50
2023/02/28 11:33:44;;;;;;;3.47;2.10;;;;;;;;;;5109077;28;20052;-48
2023/02/28 11:36:15;;;;;;;3.35;2.15;;;;;;;;;;5108845;28;20027;-48
2023/02/28 11:38:42;;;;;;;3.20;1.92;;;;;;;;;;5108875;28;20039;-49
2023/02/28 11:41:16;;;;;;;5.85;2.40;;;;;;;;;;5107314;28;20311;-47
2023/02/28 11:43:51;;;;;;;5.00;3.33;;;;;;;;;;5113047;27;20024;-51
2023/02/28 11:46:36;;;;;;;8.68;5.38;;;;;;;;;;5114797;27;20262;-50
2023/02/28 11:49:13;;;;;;;9.40;5.63;;;;;;;;;;5109366;28;20051;-50
2023/02/28 11:51:52;;;;;;;9.07;5.10;;;;;;;;;;5108644;28;20058;-51
2023/02/28 11:54:24;;;;;;;9.27;5.20;;;;;;;;;;5108195;28;20059;-51
2023/02/28 11:56:59;;;;;;;5.95;3.65;;;;;;;;;;5108802;28;20104;-49
2023/02/28 11:59:34;;;;;;;5.35;3.38;;;;;;;;;;5109519;28;20027;-49
2023/02/28 12:02:19;;;;;;;5.45;3.50;;;;;;;;;;5109156;28;20028;-47
2023/02/28 12:05:02;;;;;;;4.15;3.13;;;;;;;;;;5109547;28;20032;-50
2023/02/28 12:07:40;;;;;;;6.05;3.47;;;;;;;;;;5102803;28;20012;-50
2023/02/28 12:10:13;;;;;;;3.95;3.13;;;;;;;;;;5089288;28;20111;-50
2023/02/28 12:12:47;;;;;;;4.25;2.80;;;;;;;;;;5088599;28;20429;-48
2023/02/28 12:15:29;;;;;;;3.53;2.53;;;;;;;;;;5097082;28;20076;-47
2023/02/28 12:17:55;;;;;;;4.25;2.97;;;;;;;;;;5109048;28;20030;-51
2023/02/28 12:20:24;;;;;;;6.47;3.50;;;;;;;;;;5108251;28;20031;-48
2023/02/28 12:23:09;;;;;;;3.42;2.50;;;;;;;;;;5109071;28;20024;-47
2023/02/28 12:25:36;;;;;;;4.07;2.58;;;;;;;;;;5108612;28;20031;-48
2023/02/28 12:28:03;;;;;;;4.00;2.80;;;;;;;;;;5095753;28;20077;-48
2023/02/28 12:30:30;;;;;;;3.90;2.40;;;;;;;;;;5108093;28;20039;-51
2023/02/28 12:33:08;;;;;;;4.07;2.78;;;;;;;;;;5108350;28;20106;-49
2023/02/28 12:35:37;;;;;;;4.72;3.15;;;;;;;;;;5108602;28;20038;-47
2023/02/28 12:38:11;;;;;;;3.05;2.33;;;;;;;;;;5108680;28;20502;-49
2023/02/28 12:40:51;;;;;;;4.47;2.88;;;;;;;;;;5097801;28;20111;-49
2023/02/28 12:43:17;;;;;;;3.53;2.78;;;;;;;;;;5108787;28;20085;-49
2023/02/28 12:45:48;;;;;;;3.53;2.65;;;;;;;;;;5107970;28;20372;-51
2023/02/28 12:48:16;;;;;;;4.40;2.80;;;;;;;;;;5108718;28;20112;-50
2023/02/28 12:50:43;;;;;;;5.13;3.28;;;;;;;;;;5108229;28;20032;-51
2023/02/28 12:53:09;;;;;;;5.55;2.90;;;;;;;;;;5109639;28;20555;-52
2023/02/28 12:55:54;;;;;;;4.28;3.13;;;;;;;;;;5106417;28;20027;-51
2023/02/28 12:58:28;;;;;;;4.95;3.33;;;;;;;;;;5119886;27;20031;-50
2023/02/28 13:01:00;;;;;;;5.32;3.30;;;;;;;;;;5106784;27;20030;-50
2023/02/28 13:03:30;;;;;;;4.95;3.38;;;;;;;;;;5107939;28;20028;-47
2023/02/28 13:06:19;;;;;;;3.50;2.58;;;;;;;;;;5107089;28;20024;-49
2023/02/28 13:08:50;;;;;;;3.50;2.70;;;;;;;;;;5107189;28;20080;-48
2023/02/28 13:11:29;;;;;;;3.45;2.58;;;;;;;;;;5107779;28;20028;-51
2023/02/28 13:14:03;;;;;;;5.20;3.63;;;;;;;;;;5123363;27;20035;-48
2023/02/28 13:16:30;;;;;;;;;;;;;;;;;;5128445;27;20374;-50
2023/02/28 13:19:09;;;;;;;4.40;3.00;;;;;;;;;;5127720;27;19956;-51
2023/02/28 13:21:42;;;;;;;3.83;2.38;;;;;;;;;;5127891;27;20115;-47
2023/02/28 13:24:09;;;;;;;4.20;3.15;;;;;;;;;;5127727;27;20019;-51
2023/02/28 13:26:38;;;;;;;6.20;3.90;;;;;;;;;;5127299;27;20607;-49
2023/02/28 13:29:16;;;;;;;6.68;3.67;;;;;;;;;;5127749;27;20023;-49
2023/02/28 13:32:01;;;;;;;6.90;3.97;;;;;;;;;;5127647;27;20090;-49
2023/02/28 13:34:27;;;;;;;8.10;5.07;;;;;;;;;;5127246;27;20026;-49
2023/02/28 13:37:13;;;;;;;8.38;5.00;;;;;;;;;;5126023;27;20539;-46
2023/02/28 13:39:39;;;;;;;7.28;4.18;;;;;;;;;;5124244;27;20030;-50
2023/02/28 13:42:26;;;;;;;6.80;4.25;;;;;;;;;;5124988;28;20482;-48
2023/02/28 13:45:01;;;;;;;5.18;3.55;;;;;;;;;;5125521;28;20501;-51
2023/02/28 13:47:30;;;;;;;6.40;3.40;;;;;;;;;;5125611;28;20117;-51
2023/02/28 13:50:15;;;;;;;7.00;4.15;;;;;;;;;;5125174;28;20030;-48
2023/02/28 13:53:07;;;;;;;6.05;3.63;;;;;;;;;;5107733;28;20089;-48
2023/02/28 13:55:52;;;;;;;5.78;3.33;;;;;;;;;;5101258;28;20070;-50
2023/02/28 13:58:27;;;;;;;4.72;2.90;;;;;;;;;;5124324;28;20027;-50
2023/02/28 14:01:16;;;;;;;3.88;2.85;;;;;;;;;;5126819;28;20106;-49
2023/02/28 14:03:51;;;;;;;5.68;3.03;;;;;;;;;;5116910;27;20446;-47
2023/02/28 14:06:26;;;;;;;4.68;3.33;;;;;;;;;;5131071;27;20033;-50
2023/02/28 14:08:52;;;;;;;5.65;3.22;;;;;;;;;;5126081;27;20083;-48
2023/02/28 14:11:31;;;;;;;6.55;3.85;;;;;;;;;;5126837;27;20031;-51
2023/02/28 14:13:57;;;;;;;8.00;3.90;;;;;;;;;;5103357;28;20032;-47
2023/02/28 14:16:29;;;;;;;5.22;3.42;;;;;;;;;;5108249;28;20032;-47
2023/02/28 14:19:01;;;;;;;8.40;4.47;;;;;;;;;;5107908;28;20535;-49
2023/02/28 14:21:33;;;;;;;6.93;3.60;;;;;;;;;;5108541;28;20031;-50
2023/02/28 14:24:10;;;;;;;7.07;4.03;;;;;;;;;;5109662;28;20106;-48
2023/02/28 14:26:52;;;;;;;5.03;3.08;;;;;;;;;;5109846;28;20456;-48
2023/02/28 14:29:27;;;;;;;5.10;2.95;;;;;;;;;;5109580;28;20023;-51
2023/02/28 14:32:12;;;;;;;5.07;2.83;;;;;;;;;;5110006;28;20035;-50
2023/02/28 14:34:38;;;;;;;3.85;2.80;;;;;;;;;;5110061;28;20031;-47
2023/02/28 14:37:05;;;;;;;19.33;9.00;;;;;;;;;;5108481;28;20039;-48
2023/02/28 14:39:32;;;;;;;22.40;9.50;;;;;;;;;;5108309;28;20155;-51
2023/02/28 14:42:03;;;;;;;16.65;7.82;;;;;;;;;;5109846;28;20030;-48
2023/02/28 14:44:30;;;;;;;12.32;6.78;;;;;;;;;;5114560;27;20152;-48
2023/02/28 14:47:08;;;;;;;12.02;5.75;;;;;;;;;;5115973;27;20078;-48
2023/02/28 14:49:39;;;;;;;9.98;5.03;;;;;;;;;;5108261;28;20020;-47
2023/02/28 14:52:15;;;;;;;8.55;4.65;;;;;;;;;;5109630;28;20387;-47
2023/02/28 14:54:42;;;;;;;7.95;4.88;;;;;;;;;;5109262;28;20031;-47
2023/02/28 14:57:22;;;;;;;7.75;4.70;;;;;;;;;;5109027;28;20102;-48
2023/02/28 14:59:57;;;;;;;7.82;4.32;;;;;;;;;;5110146;28;20024;-48
2023/02/28 15:02:24;;;;;;;6.70;3.92;;;;;;;;;;5109425;28;20404;-51
2023/02/28 15:04:58;;;;;;;6.22;3.72;;;;;;;;;;5110332;28;20016;-49
2023/02/28 15:07:29;;;;;;;5.72;3.70;;;;;;;;;;5109630;28;20073;-50
2023/02/28 15:10:17;;;;;;;8.63;4.57;;;;;;;;;;5107150;28;20263;-47
2023/02/28 15:12:47;;;;;;;7.65;4.53;;;;;;;;;;5109453;28;20505;-49
2023/02/28 15:15:17;;;;;;;9.63;5.45;;;;;;;;;;5107927;28;20514;-51
2023/02/28 15:17:57;;;;;;;8.85;5.85;;;;;;;;;;5109149;28;20071;-49
2023/02/28 15:20:24;;;;;;;7.40;4.13;;;;;;;;;;5104199;28;20024;-49
2023/02/28 15:22:52;;;;;;;7.10;4.22;;;;;;;;;;5108793;28;20019;-51
2023/02/28 15:25:21;;;;;;;5.95;4.13;;;;;;;;;;5107409;28;20047;-48
2023/02/28 15:27:51;;;;;;;7.70;4.22;;;;;;;;;;5107865;28;20541;-47
2023/02/28 15:30:23;;;;;;;10.02;5.25;;;;;;;;;;5107710;28;20072;-50
2023/02/28 15:33:18;;;;;;;6.45;4.53;;;;;;;;;;5109095;28;20028;-47
2023/02/28 15:35:44;;;;;;;7.57;4.07;;;;;;;;;;5108700;28;20528;-49
2023/02/28 15:38:16;;;;;;;7.00;4.10;;;;;;;;;;5106305;28;20024;-50
2023/02/28 15:40:53;;;;;;;5.95;3.53;;;;;;;;;;5108566;28;20577;-48
2023/02/28 15:43:29;;;;;;;5.95;3.60;;;;;;;;;;5109300;28;20077;-47
2023/02/28 15:45:57;;;;;;;6.50;3.65;;;;;;;;;;5108810;28;20024;-47
2023/02/28 15:48:33;;;;;;;5.05;3.15;;;;;;;;;;5108546;28;20036;-48
2023/02/28 15:51:15;;;;;;;5.80;3.17;;;;;;;;;;5113329;27;20076;-48
2023/02/28 15:53:47;;;;;;;4.43;2.78;;;;;;;;;;5128888;27;20416;-50
2023/02/28 15:56:21;;;;;;;4.18;2.97;;;;;;;;;;5124351;27;20020;-47
2023/02/28 15:58:47;;;;;;;6.70;4.40;;;;;;;;;;5097045;28;20039;-47
2023/02/28 16:01:21;;;;;;;5.80;3.78;;;;;;;;;;5108509;28;20024;-50
2023/02/28 16:03:50;;;;;;;5.90;3.95;;;;;;;;;;5116938;27;20050;-48
2023/02/28 16:06:22;;;;;;;7.45;3.92;;;;;;;;;;5107150;28;20024;-48
2023/02/28 16:08:50;;;;;;;6.03;3.72;;;;;;;;;;5107258;28;20623;-50
2023/02/28 16:11:16;;;;;;;5.72;3.80;;;;;;;;;;5107866;28;20030;-51
2023/02/28 16:13:42;;;;;;;5.93;3.83;;;;;;;;;;5106858;28;20454;-48
2023/02/28 16:16:15;;;;;;;7.05;4.05;;;;;;;;;;5106777;28;20795;-47
2023/02/28 16:18:41;;;;;;;5.63;3.75;;;;;;;;;;5115473;27;20019;-49
2023/02/28 16:21:07;;;;;;;5.35;3.50;;;;;;;;;;5103301;28;20049;-50
2023/02/28 16:23:33;;;;;;;6.03;4.07;;;;;;;;;;5110238;27;20019;-51
2023/02/28 16:26:00;;;;;;;5.15;3.80;;;;;;;;;;5107695;28;20062;-48
2023/02/28 16:28:32;;;;;;;5.60;3.53;;;;;;;;;;5107837;28;20065;-48
2023/02/28 16:30:58;;;;;;;5.28;3.58;;;;;;;;;;5109006;28;20030;-48
2023/02/28 16:33:24;;;;;;;5.82;4.22;;;;;;;;;;5108864;28;20028;-47
2023/02/28 16:35:50;;;;;;;6.80;4.22;;;;;;;;;;5108688;28;20403;-49
2023/02/28 16:38:17;;;;;;;5.20;3.85;;;;;;;;;;5107848;28;20027;-46
2023/02/28 16:40:43;;;;;;;6.10;3.78;;;;;;;;;;5106173;28;20553;-49
2023/02/28 16:43:14;;;;;;;5.47;3.90;;;;;;;;;;5107102;28;20053;-49
2023/02/28 16:45:41;;;;;;;5.63;3.97;;;;;;;;;;5107715;28;20027;-49
2023/02/28 16:48:11;;;;;;;6.07;4.38;;;;;;;;;;5107408;28;20426;-47
2023/02/28 16:50:37;;;;;;;4.97;3.72;;;;;;;;;;5107267;28;20038;-47
2023/02/28 16:53:04;;;;;;;4.43;3.38;;;;;;;;;;5107382;28;20031;-48
2023/02/28 16:55:30;;;;;;;4.82;3.70;;;;;;;;;;5107462;28;20441;-47
2023/02/28 16:57:58;;;;;;;4.78;3.60;;;;;;;;;;5107568;28;20042;-48
2023/02/28 17:00:24;;;;;;;6.03;4.30;;;;;;;;;;5107024;28;20023;-47
2023/02/28 17:02:50;;;;;;;5.40;4.20;;;;;;;;;;5108251;28;20019;-47
2023/02/28 17:05:18;;;;;;;5.40;3.95;;;;;;;;;;5107572;28;20051;-48
2023/02/28 17:07:44;;;;;;;4.65;3.70;;;;;;;;;;5107353;28;20076;-50
2023/02/28 17:10:19;;;;;;;7.10;4.78;;;;;;;;;;5107124;28;20062;-50
2023/02/28 17:12:45;;;;;;;6.15;4.32;;;;;;;;;;5105794;28;20039;-51
2023/02/28 17:15:12;;;;;;;8.82;5.47;;;;;;;;;;5107031;28;20023;-50
2023/02/28 17:17:39;;;;;;;7.68;5.53;;;;;;;;;;5107079;28;20019;-47
2023/02/28 17:20:06;;;;;;;8.00;5.20;;;;;;;;;;5107093;28;20034;-50
2023/02/28 17:22:32;;;;;;;8.75;5.57;;;;;;;;;;5105964;28;20066;-47
2023/02/28 17:24:58;;;;;;;6.43;4.28;;;;;;;;;;5107771;28;20035;-48
2023/02/28 17:27:24;;;;;;;7.60;5.18;;;;;;;;;;5107891;28;20107;-51
2023/02/28 17:29:51;;;;;;;7.15;4.80;;;;;;;;;;5107947;28;20083;-49
2023/02/28 17:32:18;;;;;;;6.00;4.45;;;;;;;;;;5106369;28;20461;-49
2023/02/28 17:34:45;;;;;;;7.75;4.60;;;;;;;;;;5106696;28;20102;-47
2023/02/28 17:37:11;;;;;;;8.75;5.03;;;;;;;;;;5106039;28;20514;-50
2023/02/28 17:39:38;;;;;;;6.32;4.50;;;;;;;;;;5106600;28;20034;-47
2023/02/28 17:42:04;;;;;;;5.70;4.13;;;;;;;;;;5106547;28;20036;-49
2023/02/28 17:44:31;;;;;;;7.60;4.57;;;;;;;;;;5106877;28;20031;-50
2023/02/28 17:46:57;;;;;;;6.07;4.43;;;;;;;;;;5106571;28;20028;-48
2023/02/28 17:49:24;;;;;;;8.80;5.18;;;;;;;;;;5106697;28;20019;-47
2023/02/28 17:51:50;;;;;;;6.80;4.78;;;;;;;;;;5092686;28;20036;-48
2023/02/28 17:54:16;;;;;;;6.80;5.22;;;;;;;;;;5086248;28;20031;-49
2023/02/28 17:56:43;;;;;;;7.30;5.28;;;;;;;;;;5093984;28;20071;-50
2023/02/28 17:59:10;;;;;;;6.80;4.95;;;;;;;;;;5106413;28;20509;-47
2023/02/28 18:01:36;;;;;;;9.23;5.65;;;;;;;;;;5105172;28;20031;-50
2023/02/28 18:04:02;;;;;;;9.32;5.40;;;;;;;;;;5105555;28;20095;-46
2023/02/28 18:06:31;;;;;;;11.85;7.05;;;;;;;;;;5105306;28;20023;-51
2023/02/28 18:08:57;;;;;;;9.02;6.40;;;;;;;;;;5105785;28;20038;-50
2023/02/28 18:11:24;;;;;;;7.03;5.28;;;;;;;;;;5103784;28;20563;-48
2023/02/28 18:13:52;;;;;;;6.53;5.18;;;;;;;;;;5105070;28;20035;-48
2023/02/28 18:16:18;;;;;;;7.13;5.20;;;;;;;;;;5104730;28;20027;-49
2023/02/28 18:18:45;;;;;;;8.13;5.00;;;;;;;;;;5103634;28;20032;-48
2023/02/28 18:21:12;;;;;;;7.22;5.07;;;;;;;;;;5103746;28;20028;-48
2023/02/28 18:23:46;;;;;;;7.43;5.45;;;;;;;;;;5103994;28;20059;-49
2023/02/28 18:26:12;;;;;;;9.68;6.53;;;;;;;;;;5103811;28;20847;-47
2023/02/28 18:28:41;;;;;;;10.63;6.70;;;;;;;;;;5103292;28;20039;-48
2023/02/28 18:31:08;;;;;;;8.75;6.70;;;;;;;;;;5100192;28;20019;-50
2023/02/28 18:33:34;;;;;;;11.50;8.07;;;;;;;;;;5101401;28;20107;-47
2023/02/28 18:36:00;;;;;;;9.50;7.28;;;;;;;;;;5104547;28;20148;-50
2023/02/28 18:38:27;;;;;;;10.65;7.90;;;;;;;;;;5103209;28;20024;-50
2023/02/28 18:40:58;;;;;;;11.90;8.45;;;;;;;;;;5103343;28;20532;-50
2023/02/28 18:43:25;;;;;;;11.10;8.40;;;;;;;;;;5104691;28;20017;-48
2023/02/28 18:45:51;;;;;;;10.68;7.60;;;;;;;;;;5104726;28;20495;-48
2023/02/28 18:48:18;;;;;;;9.25;7.18;;;;;;;;;;5103811;28;20053;-48
2023/02/28 18:50:45;;;;;;;11.35;7.13;;;;;;;;;;5108600;28;20031;-49
2023/02/28 18:53:11;;;;;;;8.80;6.20;;;;;;;;;;5107896;28;20510;-48
2023/02/28 18:55:37;;;;;;;15.10;8.05;;;;;;;;;;5108668;28;20024;-47
2023/02/28 18:58:04;;;;;;;16.95;8.15;;;;;;;;;;5107124;28;20047;-50
2023/02/28 19:00:30;;;;;;;14.25;7.68;;;;;;;;;;5106912;28;20109;-46
2023/02/28 19:02:56;;;;;;;18.13;9.02;;;;;;;;;;5108097;28;20047;-48
2023/02/28 19:05:23;;;;;;;15.98;8.13;;;;;;;;;;5107581;28;20027;-48
2023/02/28 19:07:49;;;;;;;13.40;7.97;;;;;;;;;;5107501;28;20407;-47
2023/02/28 19:10:16;;;;;;;12.70;7.70;;;;;;;;;;5105439;28;20031;-50
2023/02/28 19:12:42;;;;;;;10.38;6.50;;;;;;;;;;5113955;27;20116;-49
2023/02/28 19:15:08;;;;;;;10.50;6.28;;;;;;;;;;5128386;27;20601;-47
2023/02/28 19:17:35;;;;;;;9.88;6.68;;;;;;;;;;5127616;27;20029;-50
2023/02/28 19:20:02;;;;;;;14.55;8.30;;;;;;;;;;5127903;27;20080;-50
2023/02/28 19:22:28;;;;;;;14.80;8.30;;;;;;;;;;5127237;27;20023;-48
2023/02/28 19:24:54;;;;;;;16.30;8.50;;;;;;;;;;5127781;27;20027;-47
2023/02/28 19:27:20;;;;;;;12.80;8.10;;;;;;;;;;5128626;27;20560;-47
2023/02/28 19:29:49;;;;;;;17.35;8.57;;;;;;;;;;5127837;27;20405;-48
2023/02/28 19:32:16;;;;;;;14.25;8.15;;;;;;;;;;5127694;27;20091;-52
2023/02/28 19:34:42;;;;;;;13.07;7.95;;;;;;;;;;5127749;27;20035;-49
2023/02/28 19:37:09;;;;;;;14.05;8.57;;;;;;;;;;5126971;27;20531;-51
2023/02/28 19:39:39;;;;;;;9.93;6.47;;;;;;;;;;5129031;27;20061;-51
2023/02/28 19:42:10;;;;;;;10.38;6.50;;;;;;;;;;5126850;27;20031;-50
2023/02/28 19:44:36;;;;;;;9.32;6.35;;;;;;;;;;5127475;27;20080;-51
2023/02/28 19:47:02;;;;;;;9.55;6.60;;;;;;;;;;5128282;27;20371;-51
2023/02/28 19:49:28;;;;;;;8.35;6.35;;;;;;;;;;5128104;27;20526;-48
2023/02/28 19:51:54;;;;;;;9.32;6.18;;;;;;;;;;5126348;27;20610;-48
2023/02/28 19:54:20;;;;;;;7.65;5.40;;;;;;;;;;5127188;27;20039;-47
2023/02/28 19:56:46;;;;;;;6.53;4.88;;;;;;;;;;5128641;27;20494;-49
2023/02/28 19:59:13;;;;;;;7.40;5.00;;;;;;;;;;5125417;27;20524;-48
2023/02/28 20:01:39;;;;;;;6.07;4.20;;;;;;;;;;5125455;27;20019;-50